Главная страница
METAR-TAF:

METAR-TAF

Аэропорты :

Caldwell, Нью-Джерси, США

широта: 40-52-35N, долгота: 074-16-59W, высота над уровнем моря: 52 м

Текущие метеонаблюдения

Эта сводка был подготовлена 49 минут назад, в 22:53 UTC
Ветер 4 Узел переменных направлений
Температура 21°C
Влажность 83%
Давление 1013 hPa
Видимость: 16.1 км
Рассеянная облачность на высоте 11000 фута

METAR: KCDW 232253Z VRB04KT 10SM BKN110 21/18 A2991 RMK AO2 SLP131 T02110178

Время: 19:42 (23:42 UTC)


TAF: отсутствует

Метеонаблюдения и прогнозы для более 4000 аэропортов (сводки METAR и TAF).

Имеющиеся станции представлены на карте желтыми и красными точками.

Чтобы увидеть название станции, наведите на нее мышь.

Затем щелкните, чтобы увидеть метеонаблюдения и метеопрогнозы.

Управление картой: чтобы увеличить масштаб, щелкните зеленые кнопки с черным крестиком; чтобы уменьшить масштаб, щелкните зеленую кнопку с тире; для просмотра соседних карт щелкайте зеленые стрелки.


METAR-TAF: